createdAt,value
2023-03-04T00:01:13.884Z,102585.19
2023-03-04T00:03:41.588Z,102588.72
2023-03-04T00:06:09.444Z,102579.00
2023-03-04T00:08:38.837Z,102581.69
2023-03-04T00:11:06.654Z,102592.41
2023-03-04T00:13:34.452Z,102585.53
2023-03-04T00:16:02.283Z,102580.16
2023-03-04T00:18:30.070Z,102582.16
2023-03-04T00:20:57.783Z,102574.13
2023-03-04T00:23:25.599Z,102575.97
2023-03-04T00:25:54.737Z,102572.47
2023-03-04T00:28:22.446Z,102569.63
2023-03-04T00:30:50.227Z,102568.78
2023-03-04T00:33:17.998Z,102574.97
2023-03-04T00:35:45.819Z,102575.13
2023-03-04T00:38:13.714Z,102573.31
2023-03-04T00:40:41.539Z,102572.63
2023-03-04T00:43:10.603Z,102573.63
2023-03-04T00:45:38.540Z,102569.09
2023-03-04T00:48:06.764Z,102574.63
2023-03-04T00:50:34.562Z,102575.78
2023-03-04T00:53:02.803Z,102562.41
2023-03-04T00:55:30.473Z,102566.91
2023-03-04T00:57:58.330Z,102572.28
2023-03-04T01:00:27.884Z,102572.44
2023-03-04T01:02:55.594Z,102572.59
2023-03-04T01:05:23.480Z,102576.94
2023-03-04T01:07:51.191Z,102580.47
2023-03-04T01:10:19.262Z,102581.28
2023-03-04T01:12:47.051Z,102582.97
2023-03-04T01:15:15.590Z,102578.47
2023-03-04T01:17:45.815Z,102573.94
2023-03-04T01:20:14.502Z,102578.13
2023-03-04T01:22:42.377Z,102582.81
2023-03-04T01:25:11.463Z,102578.31
2023-03-04T01:27:39.182Z,102582.81
2023-03-04T01:30:08.316Z,102577.47
2023-03-04T01:32:36.023Z,102574.09
2023-03-04T01:35:05.635Z,102570.59
2023-03-04T01:37:33.368Z,102571.44
2023-03-04T01:40:01.140Z,102568.91
2023-03-04T01:42:32.993Z,102557.53
2023-03-04T01:45:00.798Z,102554.03
2023-03-04T01:47:31.078Z,102550.81
2023-03-04T01:49:59.849Z,102563.38
2023-03-04T01:52:29.190Z,102545.47
2023-03-04T01:54:57.192Z,102544.47
2023-03-04T01:57:26.576Z,102555.50
2023-03-04T02:00:19.804Z,102548.31
2023-03-04T02:02:47.932Z,102537.78
2023-03-04T02:05:16.095Z,102546.31
2023-03-04T02:07:45.203Z,102533.78
2023-03-04T02:10:13.617Z,102535.59
2023-03-04T02:12:41.917Z,102529.25
2023-03-04T02:15:10.402Z,102531.78
2023-03-04T02:17:38.313Z,102522.75
2023-03-04T02:20:18.378Z,102530.78
2023-03-04T02:22:54.933Z,102524.59
2023-03-04T02:25:29.393Z,102528.09
2023-03-04T02:27:58.512Z,102530.94
2023-03-04T02:30:26.431Z,102518.88
2023-03-04T02:32:54.252Z,102515.53
2023-03-04T02:35:22.827Z,102511.84
2023-03-04T02:37:50.612Z,102523.91
2023-03-04T02:40:24.764Z,102515.03
2023-03-04T02:42:52.532Z,102515.03
2023-03-04T02:45:38.628Z,102517.88
2023-03-04T02:48:07.108Z,102509.00
2023-03-04T02:50:37.817Z,102509.00
2023-03-04T02:53:05.784Z,102501.97
2023-03-04T02:55:33.927Z,102499.31
2023-03-04T02:58:01.781Z,102504.50
2023-03-04T03:00:29.866Z,102497.47
2023-03-04T03:02:59.297Z,102497.63
2023-03-04T03:05:29.878Z,102494.97
2023-03-04T03:07:57.682Z,102502.16
2023-03-04T03:10:25.508Z,102496.13
2023-03-04T03:12:53.617Z,102491.59
2023-03-04T03:15:21.924Z,102498.78
2023-03-04T03:17:50.122Z,102492.44
2023-03-04T03:20:19.714Z,102491.59
2023-03-04T03:22:47.942Z,102493.09
2023-03-04T03:25:17.448Z,102491.94
2023-03-04T03:27:45.173Z,102497.28
2023-03-04T03:30:15.126Z,102489.56
2023-03-04T03:32:42.844Z,102485.22
2023-03-04T03:35:11.165Z,102478.19
2023-03-04T03:37:40.244Z,102478.88
2023-03-04T03:40:09.132Z,102486.75
2023-03-04T03:42:36.853Z,102484.91
2023-03-04T03:45:05.124Z,102478.56
2023-03-04T03:47:32.892Z,102478.72
2023-03-04T03:50:00.639Z,102477.88
2023-03-04T03:52:28.324Z,102481.72
2023-03-04T03:54:57.432Z,102474.34
2023-03-04T03:57:25.125Z,102478.88
2023-03-04T03:59:52.845Z,102485.06
2023-03-04T04:02:20.670Z,102483.22
2023-03-04T04:04:48.456Z,102481.56
2023-03-04T04:07:16.224Z,102492.25
2023-03-04T04:09:43.918Z,102476.19
2023-03-04T04:12:15.546Z,102486.22
2023-03-04T04:14:43.535Z,102478.19
2023-03-04T04:17:11.434Z,102484.22
2023-03-04T04:19:40.735Z,102484.22
2023-03-04T04:22:09.170Z,102480.88
2023-03-04T04:24:37.039Z,102481.19
2023-03-04T04:27:05.437Z,102486.53
2023-03-04T04:29:34.495Z,102485.53
2023-03-04T04:32:02.261Z,102479.34
2023-03-04T04:34:29.967Z,102485.53
2023-03-04T04:36:57.799Z,102493.56
2023-03-04T04:39:25.527Z,102486.72
2023-03-04T04:41:53.256Z,102496.41
2023-03-04T04:44:20.945Z,102492.91
2023-03-04T04:46:50.010Z,102493.72
2023-03-04T04:49:17.725Z,102494.72
2023-03-04T04:51:45.445Z,102494.72
2023-03-04T04:54:15.290Z,102496.56
2023-03-04T04:56:43.409Z,102489.69
2023-03-04T04:59:11.161Z,102496.56
2023-03-04T05:01:38.952Z,102500.25
2023-03-04T05:04:08.013Z,102497.72
2023-03-04T05:06:35.768Z,102493.53
2023-03-04T05:09:04.352Z,102493.38
2023-03-04T05:11:32.066Z,102499.88
2023-03-04T05:13:59.843Z,102499.22
2023-03-04T05:16:27.635Z,102497.38
2023-03-04T05:18:55.381Z,102491.19
2023-03-04T05:21:24.484Z,102492.19
2023-03-04T05:23:52.256Z,102488.00
2023-03-04T05:26:20.205Z,102488.16
2023-03-04T05:28:48.206Z,102491.66
2023-03-04T05:31:16.520Z,102488.31
2023-03-04T05:33:44.548Z,102486.47
2023-03-04T05:36:12.296Z,102494.50
2023-03-04T05:38:41.480Z,102497.19
2023-03-04T05:41:09.505Z,102497.00
2023-03-04T05:43:42.657Z,102504.53
2023-03-04T05:46:14.419Z,102485.09
2023-03-04T05:48:42.350Z,102498.50
2023-03-04T05:51:10.480Z,102506.50
2023-03-04T05:53:39.978Z,102504.84
2023-03-04T05:56:10.957Z,102508.34
2023-03-04T05:58:38.937Z,102495.47
2023-03-04T06:01:07.371Z,102505.84
2023-03-04T06:03:35.142Z,102504.84
2023-03-04T06:06:03.038Z,102507.66
2023-03-04T06:08:30.802Z,102503.31
2023-03-04T06:10:59.115Z,102505.16
2023-03-04T06:13:29.059Z,102508.66
2023-03-04T06:15:59.212Z,102505.16
2023-03-04T06:18:28.413Z,102501.81
2023-03-04T06:20:58.668Z,102496.94
2023-03-04T06:23:26.509Z,102509.50
2023-03-04T06:25:54.733Z,102513.03
2023-03-04T06:28:23.156Z,102516.53
2023-03-04T06:30:54.363Z,102511.97
2023-03-04T06:33:22.283Z,102510.97
2023-03-04T06:35:50.070Z,102519.69
2023-03-04T06:38:17.793Z,102517.31
2023-03-04T06:40:45.959Z,102518.00
2023-03-04T06:43:13.704Z,102522.16
2023-03-04T06:45:41.454Z,102519.63
2023-03-04T06:48:10.567Z,102520.47
2023-03-04T06:50:40.324Z,102520.31
2023-03-04T06:53:08.112Z,102535.72
2023-03-04T06:55:35.921Z,102535.03
2023-03-04T06:58:03.746Z,102531.53
2023-03-04T07:00:31.863Z,102538.41
2023-03-04T07:02:59.810Z,102536.56
2023-03-04T07:05:29.075Z,102533.00
2023-03-04T07:07:56.913Z,102542.22
2023-03-04T07:10:24.629Z,102541.06
2023-03-04T07:12:52.350Z,102544.59
2023-03-04T07:15:20.251Z,102540.06
2023-03-04T07:17:48.015Z,102548.09
2023-03-04T07:20:15.837Z,102549.78
2023-03-04T07:22:45.070Z,102544.44
2023-03-04T07:25:13.253Z,102554.97
2023-03-04T07:27:41.041Z,102550.63
2023-03-04T07:30:11.052Z,102551.63
2023-03-04T07:32:38.897Z,102552.44
2023-03-04T07:35:07.751Z,102555.97
2023-03-04T07:37:35.481Z,102551.44
2023-03-04T07:40:05.102Z,102566.34
2023-03-04T07:42:32.850Z,102567.34
2023-03-04T07:45:01.848Z,102562.84
2023-03-04T07:47:29.692Z,102556.97
2023-03-04T07:49:57.401Z,102572.91
2023-03-04T07:52:25.109Z,102577.13
2023-03-04T07:54:52.872Z,102569.78
2023-03-04T07:57:22.010Z,102571.47
2023-03-04T07:59:49.702Z,102574.16
2023-03-04T08:02:17.485Z,102575.16
2023-03-04T08:04:45.262Z,102578.97
2023-03-04T08:07:13.018Z,102577.13
2023-03-04T08:09:40.776Z,102579.28
2023-03-04T08:12:08.694Z,102586.41
2023-03-04T08:14:37.926Z,102581.50
2023-03-04T08:17:05.670Z,102578.19
2023-03-04T08:19:33.502Z,102577.59
2023-03-04T08:22:01.668Z,102577.81
2023-03-04T08:24:29.587Z,102578.69
2023-03-04T08:26:57.462Z,102579.72
2023-03-04T08:29:26.874Z,102578.69
2023-03-04T08:31:56.728Z,102582.41
2023-03-04T08:34:26.760Z,102575.69
2023-03-04T08:36:54.828Z,102584.38
2023-03-04T08:39:22.510Z,102582.13
2023-03-04T08:41:50.611Z,102582.59
2023-03-04T08:44:18.318Z,102586.59
2023-03-04T08:46:46.287Z,102581.38
2023-03-04T08:49:15.551Z,102583.53
2023-03-04T08:51:45.196Z,102578.50
2023-03-04T08:54:13.053Z,102580.50
2023-03-04T08:56:41.832Z,102578.13
2023-03-04T08:59:09.612Z,102581.81
2023-03-04T09:01:37.420Z,102583.44
2023-03-04T09:04:05.344Z,102576.75
2023-03-04T09:06:34.458Z,102576.75
2023-03-04T09:09:02.206Z,102580.25
2023-03-04T09:11:29.958Z,102578.41
2023-03-04T09:13:57.786Z,102574.06
2023-03-04T09:16:25.793Z,102572.56
2023-03-04T09:18:53.570Z,102571.34
2023-03-04T09:21:21.289Z,102566.00
2023-03-04T09:23:50.553Z,102566.31
2023-03-04T09:26:22.145Z,102566.97
2023-03-04T09:28:52.507Z,102560.78
2023-03-04T09:31:20.859Z,102567.97
2023-03-04T09:33:49.668Z,102562.25
2023-03-04T09:36:17.585Z,102563.41
2023-03-04T09:38:45.782Z,102557.38
2023-03-04T09:41:20.060Z,102567.91
2023-03-04T09:43:49.678Z,102571.94
2023-03-04T09:46:23.564Z,102571.94
2023-03-04T09:48:53.843Z,102554.75
2023-03-04T09:51:24.582Z,102557.25
2023-03-04T09:54:07.881Z,102548.75
2023-03-04T09:56:39.930Z,102557.81
2023-03-04T09:59:16.946Z,102558.34
2023-03-04T10:01:49.532Z,102559.84
2023-03-04T10:04:23.149Z,102558.38
2023-03-04T10:06:54.606Z,102555.69
2023-03-04T10:09:27.066Z,102545.84
2023-03-04T10:12:04.096Z,102550.03
2023-03-04T10:14:34.668Z,102549.03
2023-03-04T10:17:09.847Z,102547.34
2023-03-04T10:20:04.797Z,102547.66
2023-03-04T10:22:37.283Z,102546.31
2023-03-04T10:25:18.960Z,102536.41
2023-03-04T10:27:52.732Z,102552.81
2023-03-04T10:30:31.509Z,102555.97
2023-03-04T10:32:59.359Z,102550.47
2023-03-04T10:35:34.387Z,102539.13
2023-03-04T10:38:04.613Z,102537.63
2023-03-04T10:40:39.878Z,102538.47
2023-03-04T10:43:15.708Z,102530.28
2023-03-04T10:45:44.550Z,102535.47
2023-03-04T10:48:21.388Z,102531.47
2023-03-04T10:50:49.140Z,102528.31
2023-03-04T10:53:33.357Z,102527.16
2023-03-04T10:56:02.790Z,102535.19
2023-03-04T10:58:31.911Z,102531.16
2023-03-04T11:01:05.555Z,102529.31
2023-03-04T11:03:36.728Z,102525.81
2023-03-04T11:06:12.060Z,102527.13
2023-03-04T11:08:41.024Z,102521.94
2023-03-04T11:11:23.649Z,102508.38
2023-03-04T11:13:57.328Z,102518.78
2023-03-04T11:16:28.771Z,102513.41
2023-03-04T11:19:01.512Z,102526.81
2023-03-04T11:21:33.120Z,102495.66
2023-03-04T11:24:04.769Z,102509.75
2023-03-04T11:26:40.629Z,102505.38
2023-03-04T11:29:16.965Z,102507.38
2023-03-04T11:31:50.508Z,102507.22
2023-03-04T11:34:35.657Z,102506.91
2023-03-04T11:37:09.037Z,102504.75
2023-03-04T11:39:39.539Z,102506.09
2023-03-04T11:42:18.286Z,102495.91
2023-03-04T11:44:47.390Z,102499.59
2023-03-04T11:47:37.588Z,102493.09
2023-03-04T11:50:16.533Z,102492.47
2023-03-04T11:53:05.861Z,102484.53
2023-03-04T11:55:41.745Z,102488.38
2023-03-04T11:58:39.269Z,102486.19
2023-03-04T12:01:10.563Z,102483.34
2023-03-04T12:03:55.429Z,102476.50
2023-03-04T12:06:33.072Z,102463.81
2023-03-04T12:09:09.918Z,102467.34
2023-03-04T12:11:47.315Z,102462.50
2023-03-04T12:14:27.172Z,102463.31
2023-03-04T12:17:20.509Z,102459.78
2023-03-04T12:20:15.332Z,102458.09
2023-03-04T12:22:46.162Z,102451.06
2023-03-04T12:25:34.177Z,102451.56
2023-03-04T12:28:13.865Z,102440.50
2023-03-04T12:31:00.973Z,102430.81
2023-03-04T12:33:39.872Z,102427.63
2023-03-04T12:36:16.106Z,102420.28
2023-03-04T12:39:01.490Z,102418.94
2023-03-04T12:41:47.418Z,102411.56
2023-03-04T12:44:18.168Z,102407.22
2023-03-04T12:46:58.910Z,102407.72
2023-03-04T12:49:47.499Z,102408.88
2023-03-04T12:52:21.009Z,102403.22
2023-03-04T12:54:55.464Z,102397.88
2023-03-04T12:57:26.230Z,102395.50
2023-03-04T13:00:01.269Z,102398.69
2023-03-04T13:02:44.147Z,102390.97
2023-03-04T13:05:30.709Z,102383.94
2023-03-04T13:08:09.913Z,102384.78
2023-03-04T13:10:37.776Z,102386.31
2023-03-04T13:13:05.775Z,102381.63
2023-03-04T13:15:38.891Z,102379.78
2023-03-04T13:18:34.962Z,102378.75
2023-03-04T13:21:23.923Z,102384.75
2023-03-04T13:23:52.442Z,102377.78
2023-03-04T13:26:24.681Z,102373.84
2023-03-04T13:29:11.088Z,102365.88
2023-03-04T13:32:00.624Z,102366.75
2023-03-04T13:34:47.779Z,102370.31
2023-03-04T13:37:32.621Z,102370.50
2023-03-04T13:40:33.081Z,102374.78
2023-03-04T13:43:29.935Z,102373.03
2023-03-04T13:45:57.693Z,102369.56
2023-03-04T13:48:29.991Z,102368.69
2023-03-04T13:50:58.933Z,102367.75
2023-03-04T13:53:44.207Z,102363.59
2023-03-04T13:56:22.172Z,102361.25
2023-03-04T13:58:52.093Z,102358.53
2023-03-04T14:01:31.778Z,102347.97
2023-03-04T14:04:00.222Z,102346.94
2023-03-04T14:06:30.458Z,102338.13
2023-03-04T14:08:59.681Z,102338.50
2023-03-04T14:11:31.511Z,102345.63
2023-03-04T14:14:04.709Z,102340.91
2023-03-04T14:16:39.242Z,102344.59
2023-03-04T14:19:08.926Z,102340.91
2023-03-04T14:21:37.764Z,102334.69
2023-03-04T14:24:13.033Z,102336.25
2023-03-04T14:26:40.788Z,102333.94
2023-03-04T14:29:22.668Z,102334.06
2023-03-04T14:31:51.093Z,102329.19
2023-03-04T14:34:26.228Z,102329.31
2023-03-04T14:36:54.380Z,102326.41
2023-03-04T14:39:26.935Z,102323.13
2023-03-04T14:42:00.823Z,102321.53
2023-03-04T14:44:36.065Z,102326.59
2023-03-04T14:47:14.928Z,102320.28
2023-03-04T14:49:42.771Z,102317.13
2023-03-04T14:52:30.909Z,102312.28
2023-03-04T14:55:11.027Z,102320.03
2023-03-04T14:57:38.816Z,102320.25
2023-03-04T15:00:18.803Z,102313.81
2023-03-04T15:02:50.869Z,102310.19
2023-03-04T15:05:25.846Z,102312.09
2023-03-04T15:07:57.132Z,102303.34
2023-03-04T15:10:29.446Z,102296.69
2023-03-04T15:13:00.029Z,102302.31
2023-03-04T15:15:43.657Z,102292.91
2023-03-04T15:18:26.206Z,102288.28
2023-03-04T15:20:55.970Z,102285.41
2023-03-04T15:23:23.917Z,102288.91
2023-03-04T15:25:58.221Z,102291.88
2023-03-04T15:28:27.585Z,102281.41
2023-03-04T15:30:55.561Z,102274.25
2023-03-04T15:33:23.375Z,102281.81
2023-03-04T15:35:55.053Z,102284.56
2023-03-04T15:38:23.494Z,102289.97
2023-03-04T15:40:54.316Z,102280.97
2023-03-04T15:43:24.185Z,102283.81
2023-03-04T15:45:53.102Z,102279.66
2023-03-04T15:48:21.646Z,102277.63
2023-03-04T15:50:52.317Z,102281.31
2023-03-04T15:53:27.088Z,102274.28
2023-03-04T15:55:55.293Z,102284.19
2023-03-04T15:58:24.537Z,102279.00
2023-03-04T16:00:52.406Z,102281.50
2023-03-04T16:03:21.648Z,102269.63
2023-03-04T16:05:52.528Z,102277.38
2023-03-04T16:08:22.379Z,102281.41
2023-03-04T16:10:50.152Z,102282.41
2023-03-04T16:13:19.753Z,102280.56
2023-03-04T16:15:49.727Z,102278.91
2023-03-04T16:18:18.166Z,102280.09
2023-03-04T16:20:48.502Z,102262.06
2023-03-04T16:23:19.644Z,102275.44
2023-03-04T16:25:49.158Z,102277.63
2023-03-04T16:28:16.857Z,102277.97
2023-03-04T16:30:44.666Z,102278.63
2023-03-04T16:33:15.048Z,102274.59
2023-03-04T16:35:43.990Z,102275.25
2023-03-04T16:38:21.715Z,102273.41
2023-03-04T16:40:49.632Z,102275.91
2023-03-04T16:43:17.334Z,102278.94
2023-03-04T16:45:45.380Z,102279.13
2023-03-04T16:48:14.458Z,102278.09
2023-03-04T16:50:42.683Z,102279.78
2023-03-04T16:53:24.648Z,102277.09
2023-03-04T16:55:52.684Z,102277.94
2023-03-04T16:58:20.422Z,102278.09
2023-03-04T17:00:48.238Z,102275.25
2023-03-04T17:03:17.325Z,102281.44
2023-03-04T17:05:45.338Z,102280.63
2023-03-04T17:08:13.017Z,102279.78
2023-03-04T17:10:40.889Z,102282.28
2023-03-04T17:13:09.003Z,102287.66
2023-03-04T17:15:36.790Z,102284.97
2023-03-04T17:18:04.896Z,102288.47
2023-03-04T17:20:33.992Z,102285.97
2023-03-04T17:23:01.848Z,102287.66
2023-03-04T17:25:29.668Z,102293.84
2023-03-04T17:27:57.413Z,102291.34
2023-03-04T17:30:25.137Z,102291.34
2023-03-04T17:32:52.891Z,102293.34
2023-03-04T17:35:21.202Z,102297.03
2023-03-04T17:37:50.690Z,102290.84
2023-03-04T17:40:18.567Z,102304.06
2023-03-04T17:42:46.307Z,102302.22
2023-03-04T17:45:14.007Z,102303.91
2023-03-04T17:47:42.106Z,102308.44
2023-03-04T17:50:11.163Z,102305.94
2023-03-04T17:52:38.995Z,102309.63
2023-03-04T17:55:08.876Z,102308.78
2023-03-04T17:57:38.336Z,102306.44
2023-03-04T18:00:07.400Z,102313.66
2023-03-04T18:02:35.092Z,102315.31
2023-03-04T18:05:05.671Z,102311.81
2023-03-04T18:07:33.441Z,102315.69
2023-03-04T18:10:01.189Z,102320.19
2023-03-04T18:12:30.500Z,102311.50
2023-03-04T18:14:58.393Z,102315.34
2023-03-04T18:17:26.527Z,102301.19
2023-03-04T18:19:55.233Z,102313.88
2023-03-04T18:22:22.989Z,102312.22
2023-03-04T18:24:50.700Z,102312.84
2023-03-04T18:27:18.450Z,102311.22
2023-03-04T18:29:47.527Z,102310.56
2023-03-04T18:32:15.422Z,102308.88
2023-03-04T18:34:43.306Z,102308.03
2023-03-04T18:37:11.004Z,102305.72
2023-03-04T18:39:38.891Z,102311.25
2023-03-04T18:42:06.725Z,102309.41
2023-03-04T18:44:34.470Z,102314.59
2023-03-04T18:47:03.841Z,102306.38
2023-03-04T18:49:31.628Z,102311.38
2023-03-04T18:51:59.336Z,102313.88
2023-03-04T18:54:27.070Z,102312.84
2023-03-04T18:56:58.184Z,102315.53
2023-03-04T18:59:31.425Z,102318.41
2023-03-04T19:02:03.121Z,102317.59
2023-03-04T19:04:32.660Z,102315.06
2023-03-04T19:07:00.703Z,102322.28
2023-03-04T19:09:28.748Z,102304.03
2023-03-04T19:11:56.492Z,102316.25
2023-03-04T19:14:24.257Z,102323.28
2023-03-04T19:16:52.050Z,102316.56
2023-03-04T19:19:19.800Z,102320.72
2023-03-04T19:21:48.955Z,102307.97
2023-03-04T19:24:16.800Z,102312.34
2023-03-04T19:26:44.549Z,102306.97
2023-03-04T19:29:12.458Z,102305.13
2023-03-04T19:31:41.806Z,102309.66
2023-03-04T19:34:09.559Z,102312.69
2023-03-04T19:36:37.304Z,102307.50
2023-03-04T19:39:06.913Z,102303.97
2023-03-04T19:41:34.668Z,102305.00
2023-03-04T19:44:02.576Z,102302.50
2023-03-04T19:46:32.238Z,102301.66
2023-03-04T19:48:59.999Z,102298.16
2023-03-04T19:51:29.067Z,102304.53
2023-03-04T19:53:57.166Z,102301.00
2023-03-04T19:56:26.499Z,102302.19
2023-03-04T19:58:55.042Z,102305.03
2023-03-04T20:01:27.834Z,102304.22
2023-03-04T20:03:55.918Z,102303.53
2023-03-04T20:06:23.881Z,102296.03
2023-03-04T20:08:52.177Z,102300.38
2023-03-04T20:11:20.211Z,102289.00
2023-03-04T20:13:49.372Z,102296.03
2023-03-04T20:16:17.208Z,102292.50
2023-03-04T20:18:45.032Z,102295.19
2023-03-04T20:21:14.089Z,102294.34
2023-03-04T20:23:41.836Z,102282.13
2023-03-04T20:26:10.400Z,102290.00
2023-03-04T20:28:38.190Z,102295.72
2023-03-04T20:31:18.513Z,102295.88
2023-03-04T20:33:48.586Z,102294.56
2023-03-04T20:36:16.433Z,102295.72
2023-03-04T20:38:44.474Z,102301.09
2023-03-04T20:41:12.352Z,102306.78
2023-03-04T20:43:41.410Z,102298.75
2023-03-04T20:46:36.921Z,102303.94
2023-03-04T20:49:07.627Z,102302.28
2023-03-04T20:51:36.270Z,102298.41
2023-03-04T20:54:04.795Z,102308.78
2023-03-04T20:56:33.924Z,102307.94
2023-03-04T20:59:03.682Z,102312.47
2023-03-04T21:01:33.057Z,102307.44
2023-03-04T21:04:02.619Z,102307.09
2023-03-04T21:06:30.493Z,102304.59
2023-03-04T21:09:01.151Z,102303.94
2023-03-04T21:11:31.292Z,102303.94
2023-03-04T21:13:59.059Z,102308.44
2023-03-04T21:16:30.199Z,102303.09
2023-03-04T21:19:00.024Z,102304.09
2023-03-04T21:21:29.702Z,102296.22
2023-03-04T21:23:58.963Z,102298.06
2023-03-04T21:26:26.932Z,102289.22
2023-03-04T21:28:56.329Z,102291.06
2023-03-04T21:31:26.824Z,102286.03
2023-03-04T21:33:56.172Z,102281.69
2023-03-04T21:36:25.272Z,102283.34
2023-03-04T21:38:54.260Z,102286.03
2023-03-04T21:41:24.554Z,102275.31
2023-03-04T21:43:52.971Z,102274.81
2023-03-04T21:46:20.753Z,102273.47
2023-03-04T21:48:48.492Z,102267.28
2023-03-04T21:51:17.734Z,102273.47
2023-03-04T21:53:46.900Z,102270.63
2023-03-04T21:56:15.609Z,102267.28
2023-03-04T21:58:43.354Z,102268.28
2023-03-04T22:01:12.623Z,102272.81
2023-03-04T22:03:40.546Z,102261.09
2023-03-04T22:06:09.797Z,102262.09
2023-03-04T22:08:38.353Z,102263.09
2023-03-04T22:11:09.090Z,102267.63
2023-03-04T22:13:37.306Z,102258.09
2023-03-04T22:16:06.597Z,102267.81
2023-03-04T22:18:34.866Z,102262.78
2023-03-04T22:21:04.969Z,102261.94
2023-03-04T22:23:33.535Z,102251.41
2023-03-04T22:26:03.464Z,102254.91
2023-03-04T22:28:33.146Z,102258.59
2023-03-04T22:31:01.942Z,102254.09
2023-03-04T22:33:31.565Z,102256.94
2023-03-04T22:35:59.848Z,102256.28
2023-03-04T22:38:27.612Z,102253.94
2023-03-04T22:40:55.334Z,102257.63
2023-03-04T22:43:23.031Z,102263.31
2023-03-04T22:45:52.209Z,102255.63
2023-03-04T22:48:19.958Z,102243.09
2023-03-04T22:50:47.736Z,102248.44
2023-03-04T22:53:15.434Z,102251.44
2023-03-04T22:55:43.104Z,102245.59
2023-03-04T22:58:10.982Z,102247.28
2023-03-04T23:00:39.067Z,102241.91
2023-03-04T23:03:08.648Z,102241.91
2023-03-04T23:05:36.503Z,102242.91
2023-03-04T23:08:04.234Z,102246.59
2023-03-04T23:10:32.023Z,102232.56
2023-03-04T23:12:59.993Z,102238.75
2023-03-04T23:15:27.965Z,102238.06
2023-03-04T23:17:55.678Z,102229.22
2023-03-04T23:20:24.810Z,102229.22
2023-03-04T23:22:52.608Z,102238.25
2023-03-04T23:25:20.562Z,102237.41
2023-03-04T23:27:48.318Z,102229.72
2023-03-04T23:30:17.614Z,102228.88
2023-03-04T23:32:45.763Z,102224.53
2023-03-04T23:35:13.556Z,102230.88
2023-03-04T23:37:42.621Z,102226.38
2023-03-04T23:40:12.105Z,102230.22
2023-03-04T23:42:40.897Z,102227.56
2023-03-04T23:45:09.652Z,102224.38
2023-03-04T23:47:37.394Z,102224.72
2023-03-04T23:50:08.555Z,102215.84
2023-03-04T23:52:36.440Z,102219.38
2023-03-04T23:55:06.415Z,102216.69
2023-03-04T23:57:34.157Z,102211.50
